Portada
METAR-TAF:

METAR-TAF

Aeroports :

Tumbes, Perú

latitud: 03-33S, longitud: 080-24W, altitud: 25 m

Observació

L'informe es va fer fa 15 hores i 39 minuts, a les 20:00 UTC
Temperatura 24°C
Humitat 78%
Pressió 1011 hPa
Visibilitat 10 km o més
Cel cobert a una alçada de 1300 ft

METAR: SPME 232000Z /////KT 9999 OVC013 24/20 Q1011 RMK BIRD HAZARD RWY 32/14 PP000

Hora: 06:39 (11:39 UTC)

Pronòstic

L'informe es va fer fa 18 hores i 33 minuts, a les 17:06 UTC
Pronòstic vàlid del 23 a les 18 UTC al 24 a les 18 UTC
Vent 10 kt del Nord/Nord-Oest
Visibilitat 10 km o més
Cel ennuvolat a una alçada de 1400 ft
Evolucionant progressivament
l' 23 a les 22 UTC al 23 a les 01 UTC
Vent 2 kt amb direcció variable
Cel cobert a una alçada de 1200 ft
Temporalment
l' 24 a les 12 UTC al 24 a les 14 UTC
Cel cobert a una alçada de 1000 ft

TAF: SPME 231706Z 2318/2418 33010KT 9999 BKN014 TX27/2319Z TN21/2411Z BECMG 2322/2301 VRB02KT OVC012 TEMPO 2412/2414 OVC010

Observacions i pronòstics meteorològics de més de 4000 aeroports (METAR i TAF).

Les estacions disponibles són els punts grocs i vermells al mapa.

Posi el ratolí al punt desitjat per veure el nom de l'estació.

Feu clic per veure les observacions i els pronòstics meteorològics.

Per canviar el mapa: feu clic els botons verds amb una creu de color negre per apropar; al botó verd amb un guió per allunyar la imatge; o en les fletxes verdes per a mapes adjacents.


METAR-TAF: